Time;durP1;ratioP1;P1;durP2;ratioP2;P2;SDS_P1;SDS_P2;PMS_P1;PMS_P2;Temp;Humidity;BMP_temperature;BMP_pressure;BME280_temperature;BME280_humidity;BME280_pressure;Samples;Min_cycle;Max_cycle;Signal;HPM_P1;HPM_P2
2023/11/24 00:01:24;;;;;;;2.30;1.40;;;;;;;5.45;88.43;94923.44;108825;1272;39221;-81
2023/11/24 00:03:58;;;;;;;2.60;2.40;;;;;;;5.44;88.52;94920.77;108793;1272;22651;-81
2023/11/24 00:06:33;;;;;;;3.90;2.20;;;;;;;5.44;88.61;94907.38;108791;1272;22560;-81
2023/11/24 00:09:03;;;;;;;1.90;1.40;;;;;;;5.43;88.65;94915.11;108825;1272;22531;-81
2023/11/24 00:11:35;;;;;;;4.80;2.80;;;;;;;5.44;88.62;94922.30;108829;1272;22516;-80
2023/11/24 00:14:07;;;;;;;3.60;2.10;;;;;;;5.41;88.84;94904.48;108839;1272;25273;-81
2023/11/24 00:16:39;;;;;;;2.60;2.00;;;;;;;5.38;88.98;94911.52;108847;1272;22510;-81
2023/11/24 00:19:13;;;;;;;5.30;2.20;;;;;;;5.37;89.13;94902.45;108809;1267;22530;-81
2023/11/24 00:21:47;;;;;;;2.10;1.60;;;;;;;5.35;89.21;94893.80;108838;1272;22541;-81
2023/11/24 00:24:23;;;;;;;2.50;2.20;;;;;;;5.35;89.40;94904.89;108786;1272;22481;-81
2023/11/24 00:26:58;;;;;;;2.90;2.20;;;;;;;5.38;89.40;94896.17;108776;1272;22634;-81
2023/11/24 00:29:32;;;;;;;2.10;1.60;;;;;;;5.38;89.14;94891.81;108906;1269;25325;-81
2023/11/24 00:32:04;;;;;;;3.30;2.20;;;;;;;5.34;89.12;94893.44;108790;1272;22949;-81
2023/11/24 00:34:38;;;;;;;2.70;1.60;;;;;;;5.31;89.06;94896.16;108849;1272;24170;-81
2023/11/24 00:37:11;;;;;;;2.30;1.90;;;;;;;5.27;89.22;94890.83;108778;1272;22586;-81
2023/11/24 00:39:49;;;;;;;3.30;2.20;;;;;;;5.25;89.47;94893.11;108849;1269;22520;-81
2023/11/24 00:42:26;;;;;;;1.80;1.40;;;;;;;5.25;89.54;94883.94;108804;1272;22588;-81
2023/11/24 00:45:00;;;;;;;2.10;1.70;;;;;;;5.22;89.49;94869.31;108818;1266;25214;-81
2023/11/24 00:47:31;;;;;;;2.30;1.00;;;;;;;5.23;89.75;94868.36;108804;1272;22513;-81
2023/11/24 00:50:06;;;;;;;2.40;1.40;;;;;;;5.22;89.63;94840.05;108811;1268;22524;-81
2023/11/24 00:52:40;;;;;;;1.60;1.50;;;;;;;5.21;89.86;94856.39;108836;1272;25056;-81
2023/11/24 00:55:13;;;;;;;2.30;1.40;;;;;;;5.25;89.88;94847.04;108817;1272;24177;-81
2023/11/24 00:57:44;;;;;;;1.40;1.30;;;;;;;5.28;89.88;94846.95;108830;1272;22525;-81
2023/11/24 01:00:17;;;;;;;2.30;1.50;;;;;;;5.29;89.88;94850.17;108802;1269;23870;-81
2023/11/24 01:02:51;;;;;;;1.70;1.30;;;;;;;5.30;89.92;94840.23;108789;1272;22512;-81
2023/11/24 01:05:26;;;;;;;2.10;1.20;;;;;;;5.34;89.84;94829.55;108839;1267;25187;-81
2023/11/24 01:07:58;;;;;;;1.70;1.30;;;;;;;5.39;89.79;94834.15;108855;1272;24180;-81
2023/11/24 01:10:29;;;;;;;1.40;1.30;;;;;;;5.39;89.66;94833.00;108848;1267;22524;-81
2023/11/24 01:13:00;;;;;;;1.20;1.10;;;;;;;5.40;89.15;94820.30;108772;1270;25438;-81
2023/11/24 01:15:33;;;;;;;1.40;1.00;;;;;;;5.41;89.13;94812.41;108828;1270;22536;-81
2023/11/24 01:18:08;;;;;;;2.40;1.60;;;;;;;5.35;88.96;94814.97;108805;1266;23790;-81
2023/11/24 01:20:39;;;;;;;1.20;0.90;;;;;;;5.35;89.20;94820.96;108837;1272;22531;-81
2023/11/24 01:23:10;;;;;;;2.40;1.00;;;;;;;5.42;89.19;94808.09;108838;1272;22526;-81
2023/11/24 01:25:44;;;;;;;1.40;1.20;;;;;;;5.41;88.75;94818.29;108813;1267;25407;-81
2023/11/24 01:28:17;;;;;;;2.00;1.30;;;;;;;5.35;88.88;94807.73;108754;1272;22564;-81
2023/11/24 01:30:51;;;;;;;1.60;1.20;;;;;;;5.34;88.74;94800.22;108821;1272;22525;-81
2023/11/24 01:33:24;;;;;;;2.50;1.40;;;;;;;5.32;88.65;94789.27;108790;1266;24797;-81
2023/11/24 01:35:58;;;;;;;1.40;1.30;;;;;;;5.37;88.60;94798.81;108846;1272;25249;-81
2023/11/24 01:38:32;;;;;;;1.40;1.30;;;;;;;5.46;88.09;94792.77;108814;1267;25663;-81
2023/11/24 01:41:04;;;;;;;2.30;1.20;;;;;;;5.45;88.22;94792.52;108834;1251;25291;-81
2023/11/24 01:43:37;;;;;;;2.40;1.10;;;;;;;5.43;88.09;94790.24;108860;1272;23873;-81
2023/11/24 01:46:11;;;;;;;1.70;0.90;;;;;;;5.43;88.27;94795.61;108840;1272;26760;-81
2023/11/24 01:48:42;;;;;;;1.70;1.30;;;;;;;5.43;88.17;94800.71;108843;1267;22525;-81
2023/11/24 01:51:18;;;;;;;2.20;1.20;;;;;;;5.41;88.22;94788.45;108833;1272;23878;-81
2023/11/24 01:53:50;;;;;;;1.30;1.20;;;;;;;5.39;88.17;94793.67;108823;1270;22754;-81
2023/11/24 01:56:25;;;;;;;1.10;0.90;;;;;;;5.39;88.03;94784.75;108835;1272;22518;-81
2023/11/24 01:59:00;;;;;;;1.20;0.70;;;;;;;5.40;88.03;94794.65;108873;1272;22560;-81
2023/11/24 02:01:39;;;;;;;0.90;0.80;;;;;;;5.40;88.22;94797.02;108844;1272;26141;-81
2023/11/24 02:04:10;;;;;;;0.80;0.80;;;;;;;5.41;88.17;94800.42;108801;1272;22522;-81
2023/11/24 02:06:44;;;;;;;1.20;0.80;;;;;;;5.44;88.01;94794.79;108838;1272;24346;-81
2023/11/24 02:09:18;;;;;;;1.10;1.00;;;;;;;5.44;88.09;94806.84;108847;1257;22500;-81
2023/11/24 02:11:52;;;;;;;2.10;0.80;;;;;;;5.40;88.35;94810.91;108844;1269;22981;-81
2023/11/24 02:14:23;;;;;;;1.20;0.90;;;;;;;5.40;88.52;94811.85;108847;1265;23809;-81
2023/11/24 02:16:54;;;;;;;0.80;0.70;;;;;;;5.36;88.67;94815.75;108858;1272;22557;-81
2023/11/24 02:19:26;;;;;;;1.60;1.20;;;;;;;5.33;89.08;94826.52;108816;1272;22603;-81
2023/11/24 02:21:58;;;;;;;2.00;1.00;;;;;;;5.29;89.51;94841.98;108798;1272;22727;-81
2023/11/24 02:24:31;;;;;;;0.90;0.80;;;;;;;5.26;90.16;94843.86;108845;1272;23751;-81
2023/11/24 02:27:07;;;;;;;0.70;0.70;;;;;;;5.24;90.89;94841.58;108851;1272;23016;-81
2023/11/24 02:29:38;;;;;;;1.50;0.50;;;;;;;5.23;91.36;94834.93;108848;1272;22543;-81
2023/11/24 02:32:12;;;;;;;0.80;0.60;;;;;;;5.23;92.07;94836.19;108820;1266;22700;-80
2023/11/24 02:34:50;;;;;;;0.70;0.70;;;;;;;5.21;92.17;94831.70;108849;1254;22522;-80
2023/11/24 02:37:22;;;;;;;0.50;0.50;;;;;;;5.18;93.17;94849.60;108862;1272;22721;-80
2023/11/24 02:39:53;;;;;;;0.90;0.50;;;;;;;5.16;93.97;94866.23;108839;1267;22565;-80
2023/11/24 02:42:26;;;;;;;0.80;0.60;;;;;;;5.13;94.80;94893.36;108839;1272;26897;-79
2023/11/24 02:44:57;;;;;;;0.60;0.50;;;;;;;5.08;95.85;94936.60;108863;1266;24425;-80
2023/11/24 02:47:28;;;;;;;0.20;0.20;;;;;;;4.99;95.45;94953.84;108789;1251;22615;-80
2023/11/24 02:50:02;;;;;;;0.60;0.10;;;;;;;4.70;94.02;94946.38;108856;1272;25629;-80
2023/11/24 02:52:36;;;;;;;0.30;0.10;;;;;;;4.36;93.72;94945.58;108855;1272;22527;-80
2023/11/24 02:55:10;;;;;;;0.10;0.00;;;;;;;4.14;93.99;94937.45;108813;1272;22529;-80
2023/11/24 02:57:41;;;;;;;0.20;0.10;;;;;;;3.96;94.56;94913.99;108854;1272;22547;-80
2023/11/24 03:00:18;;;;;;;0.60;0.10;;;;;;;3.82;95.45;94916.96;108843;1266;22507;-80
2023/11/24 03:02:49;;;;;;;0.00;0.00;;;;;;;3.67;95.82;94921.71;108812;1266;24925;-80
2023/11/24 03:05:20;;;;;;;0.30;0.10;;;;;;;3.56;96.22;94919.75;108882;1272;24212;-80
2023/11/24 03:07:53;;;;;;;0.00;0.00;;;;;;;3.46;96.88;94921.31;108885;1265;24356;-80
2023/11/24 03:10:25;;;;;;;0.40;0.00;;;;;;;3.38;97.17;94931.53;108805;1266;22497;-80
2023/11/24 03:12:58;;;;;;;0.30;0.20;;;;;;;3.33;97.19;94920.36;108771;1272;31479;-79
2023/11/24 03:15:34;;;;;;;0.10;0.00;;;;;;;3.30;97.52;94933.42;108865;1272;22595;-80
2023/11/24 03:18:07;;;;;;;0.10;0.10;;;;;;;3.25;97.71;94934.04;108825;1266;25407;-80
2023/11/24 03:20:38;;;;;;;0.00;0.00;;;;;;;3.20;97.91;94936.95;108839;1272;22623;-79
2023/11/24 03:23:09;;;;;;;0.60;0.20;;;;;;;3.13;98.38;94936.11;108856;1251;31211;-80
2023/11/24 03:25:41;;;;;;;0.30;0.30;;;;;;;3.09;98.28;94934.39;108833;1272;22518;-80
2023/11/24 03:28:13;;;;;;;0.00;0.00;;;;;;;3.06;98.28;94946.98;108832;1272;22561;-80
2023/11/24 03:30:46;;;;;;;0.10;0.10;;;;;;;3.02;98.45;94946.90;108837;1272;24285;-79
2023/11/24 03:33:20;;;;;;;0.00;0.00;;;;;;;3.03;98.88;94941.87;108815;1272;22505;-80
2023/11/24 03:35:53;;;;;;;0.00;0.00;;;;;;;2.97;98.77;94945.94;108834;1272;22508;-79
2023/11/24 03:38:24;;;;;;;0.20;0.10;;;;;;;2.85;99.16;94953.33;108841;1266;22535;-79
2023/11/24 03:40:56;;;;;;;0.10;0.00;;;;;;;2.77;99.34;94968.50;108883;1267;22590;-80
2023/11/24 03:43:27;;;;;;;0.20;0.10;;;;;;;2.70;99.44;94956.97;108805;1267;22518;-80
2023/11/24 03:45:59;;;;;;;0.10;0.10;;;;;;;2.70;99.87;94931.02;108823;1272;23284;-80
2023/11/24 03:48:30;;;;;;;0.20;0.00;;;;;;;2.74;99.38;94938.37;108827;1272;24209;-79
2023/11/24 03:51:04;;;;;;;0.70;0.10;;;;;;;2.69;98.82;94932.96;108869;1266;22563;-79
2023/11/24 03:53:37;;;;;;;0.60;0.10;;;;;;;2.67;98.80;94919.52;108874;1266;22541;-79
2023/11/24 03:56:10;;;;;;;0.80;0.20;;;;;;;2.70;98.86;94919.23;108851;1272;22521;-79
2023/11/24 03:58:41;;;;;;;1.20;0.10;;;;;;;2.73;98.96;94914.73;108860;1272;25019;-80
2023/11/24 04:01:18;;;;;;;0.30;0.10;;;;;;;2.75;98.84;94914.45;108773;1272;22619;-79
2023/11/24 04:03:54;;;;;;;0.10;0.10;;;;;;;2.75;98.88;94907.07;108849;1265;22517;-80
2023/11/24 04:06:27;;;;;;;1.60;0.10;;;;;;;2.78;99.16;94885.95;108848;1272;22562;-79
2023/11/24 04:09:01;;;;;;;0.50;0.20;;;;;;;2.80;99.06;94897.40;108857;1272;22506;-80
2023/11/24 04:11:35;;;;;;;0.50;0.20;;;;;;;2.82;98.83;94899.23;108862;1272;24222;-79
2023/11/24 04:14:06;;;;;;;0.00;0.00;;;;;;;2.78;98.49;94893.64;108869;1266;22559;-80
2023/11/24 04:16:37;;;;;;;0.30;0.20;;;;;;;2.74;98.45;94872.84;108877;1272;23026;-79
2023/11/24 04:19:08;;;;;;;1.00;0.20;;;;;;;2.73;98.64;94871.19;108864;1265;22642;-79
2023/11/24 04:21:40;;;;;;;0.10;0.00;;;;;;;2.69;98.67;94880.21;108828;1269;28558;-80
2023/11/24 04:24:16;;;;;;;0.30;0.10;;;;;;;2.64;98.65;94882.05;108845;1272;25501;-80
2023/11/24 04:26:48;;;;;;;0.50;0.20;;;;;;;2.59;98.91;94881.09;108867;1272;22644;-80
2023/11/24 04:29:22;;;;;;;0.10;0.10;;;;;;;2.57;98.76;94878.02;108906;1251;22556;-80
2023/11/24 04:31:54;;;;;;;1.20;0.30;;;;;;;2.55;98.88;94868.94;108824;1272;22524;-80
2023/11/24 04:34:27;;;;;;;1.30;0.80;;;;;;;2.53;98.90;94859.52;108889;1272;22528;-80
2023/11/24 04:36:59;;;;;;;0.10;0.10;;;;;;;2.56;99.07;94846.13;108863;1269;22663;-80
2023/11/24 04:39:30;;;;;;;0.60;0.20;;;;;;;2.59;99.37;94834.06;108832;1272;25339;-80
2023/11/24 04:42:02;;;;;;;0.50;0.20;;;;;;;2.59;99.21;94842.23;108812;1265;25430;-80
2023/11/24 04:44:37;;;;;;;0.50;0.20;;;;;;;2.56;99.26;94856.06;108889;1272;22514;-80
2023/11/24 04:47:10;;;;;;;0.20;0.10;;;;;;;2.54;99.15;94838.75;108844;1272;22537;-80
2023/11/24 04:49:43;;;;;;;0.10;0.10;;;;;;;2.54;99.37;94822.86;108894;1272;22927;-80
2023/11/24 04:52:16;;;;;;;0.60;0.20;;;;;;;2.53;99.45;94818.65;108829;1272;24185;-80
2023/11/24 04:54:48;;;;;;;0.30;0.20;;;;;;;2.51;99.47;94821.28;108833;1270;22596;-80
2023/11/24 04:57:21;;;;;;;0.60;0.30;;;;;;;2.49;99.29;94815.76;108849;1272;25850;-80
2023/11/24 04:59:53;;;;;;;0.40;0.10;;;;;;;2.48;99.50;94822.41;108887;1266;22628;-80
2023/11/24 05:02:28;;;;;;;0.70;0.30;;;;;;;2.45;99.65;94823.58;108800;1272;22530;-80
2023/11/24 05:05:00;;;;;;;1.70;0.70;;;;;;;2.43;99.59;94834.63;108852;1272;22522;-80
2023/11/24 05:07:34;;;;;;;1.10;0.30;;;;;;;2.42;99.58;94826.95;108841;1272;26454;-80
2023/11/24 05:10:07;;;;;;;1.40;0.40;;;;;;;2.43;99.88;94810.46;108827;1266;24243;-80
2023/11/24 05:12:43;;;;;;;0.50;0.30;;;;;;;2.42;99.72;94803.63;108897;1272;25281;-80
2023/11/24 05:15:14;;;;;;;2.60;0.30;;;;;;;2.42;99.68;94798.45;108881;1272;22546;-80
2023/11/24 05:17:45;;;;;;;1.60;0.70;;;;;;;2.44;99.80;94796.59;108826;1272;22520;-80
2023/11/24 05:20:23;;;;;;;2.30;0.50;;;;;;;2.46;99.83;94804.48;108900;1266;25420;-80
2023/11/24 05:22:56;;;;;;;0.30;0.30;;;;;;;2.48;99.73;94810.48;108815;1269;23282;-80
2023/11/24 05:25:28;;;;;;;0.50;0.30;;;;;;;2.50;99.86;94807.48;108844;1272;22532;-80
2023/11/24 05:27:59;;;;;;;1.00;0.50;;;;;;;2.53;99.93;94809.55;108871;1272;22570;-80
2023/11/24 05:30:39;;;;;;;0.80;0.40;;;;;;;2.55;99.77;94815.27;108830;1272;22579;-80
2023/11/24 05:33:10;;;;;;;1.10;0.60;;;;;;;2.54;99.77;94818.40;108837;1272;24312;-80
2023/11/24 05:35:41;;;;;;;2.30;0.30;;;;;;;2.55;99.82;94822.48;108826;1272;22531;-80
2023/11/24 05:38:13;;;;;;;0.40;0.40;;;;;;;2.57;99.96;94829.31;108858;1272;24212;-80
2023/11/24 05:40:45;;;;;;;1.50;0.40;;;;;;;2.59;100.00;94827.52;108866;1254;22507;-81
2023/11/24 05:43:18;;;;;;;0.70;0.50;;;;;;;2.62;99.89;94835.77;108880;1272;22521;-81
2023/11/24 05:45:49;;;;;;;1.70;0.70;;;;;;;2.60;99.84;94827.89;108901;1269;22517;-81
2023/11/24 05:48:21;;;;;;;1.20;0.60;;;;;;;2.60;99.88;94831.23;108886;1266;25246;-81
2023/11/24 05:50:54;;;;;;;0.70;0.40;;;;;;;2.60;99.76;94819.20;108883;1269;24079;-81
2023/11/24 05:53:26;;;;;;;1.50;0.60;;;;;;;2.57;99.64;94822.94;108858;1266;22845;-81
2023/11/24 05:55:59;;;;;;;1.60;0.40;;;;;;;2.60;99.84;94815.75;108885;1269;22532;-81
2023/11/24 05:58:31;;;;;;;1.70;0.30;;;;;;;2.67;99.14;94816.33;108822;1270;23755;-81
2023/11/24 06:01:02;;;;;;;1.50;0.60;;;;;;;2.69;98.12;94793.67;108865;1272;23905;-81
2023/11/24 06:03:34;;;;;;;1.80;0.40;;;;;;;2.71;96.19;94799.56;108871;1272;25694;-81
2023/11/24 06:06:07;;;;;;;0.70;0.30;;;;;;;2.74;94.81;94810.21;108878;1272;24962;-81
2023/11/24 06:08:38;;;;;;;1.70;0.30;;;;;;;2.73;94.72;94820.58;108872;1272;22524;-81
2023/11/24 06:11:09;;;;;;;2.30;0.30;;;;;;;2.71;94.04;94835.88;108830;1272;36499;-79
2023/11/24 06:13:40;;;;;;;0.60;0.50;;;;;;;2.73;93.63;94844.59;108844;1266;22500;-81
2023/11/24 06:16:11;;;;;;;1.00;0.40;;;;;;;2.73;92.59;94850.41;108863;1259;22548;-81
2023/11/24 06:18:44;;;;;;;0.30;0.20;;;;;;;2.66;90.78;94836.95;108895;1272;22556;-81
2023/11/24 06:21:16;;;;;;;4.00;0.90;;;;;;;2.48;86.89;94871.33;108813;1272;25297;-80
2023/11/24 06:23:50;;;;;;;0.80;0.20;;;;;;;2.24;86.88;94898.41;108852;1272;22527;-81
2023/11/24 06:26:26;;;;;;;1.70;0.50;;;;;;;1.95;88.23;94869.39;108840;1272;22523;-81
2023/11/24 06:29:04;;;;;;;0.90;0.20;;;;;;;1.60;90.58;94873.59;108879;1272;26028;-81
2023/11/24 06:31:36;;;;;;;3.70;0.50;;;;;;;1.28;92.45;94907.88;108841;1272;22527;-80
2023/11/24 06:34:10;;;;;;;1.20;0.60;;;;;;;1.12;94.70;94880.05;108855;1272;22517;-81
2023/11/24 06:36:41;;;;;;;1.70;0.40;;;;;;;1.04;95.55;94907.19;108813;1272;22532;-80
2023/11/24 06:39:13;;;;;;;2.10;0.60;;;;;;;0.98;96.32;94900.91;108845;1272;22537;-80
2023/11/24 06:41:47;;;;;;;1.70;0.30;;;;;;;0.94;97.34;94888.91;108823;1269;22551;-81
2023/11/24 06:44:26;;;;;;;2.50;0.60;;;;;;;0.90;98.04;94889.69;108850;1272;25338;-81
2023/11/24 06:47:00;;;;;;;3.20;0.70;;;;;;;0.92;98.64;94880.24;108827;1272;22564;-81
2023/11/24 06:49:34;;;;;;;3.30;0.50;;;;;;;0.99;98.97;94883.76;108921;1265;24237;-80
2023/11/24 06:52:08;;;;;;;1.40;0.50;;;;;;;1.12;98.90;94858.70;108867;1269;22518;-80
2023/11/24 06:54:43;;;;;;;3.40;1.80;;;;;;;1.22;98.39;94873.78;108864;1272;25433;-81
2023/11/24 06:57:14;;;;;;;1.00;0.50;;;;;;;1.34;97.87;94874.20;108895;1272;22553;-81
2023/11/24 06:59:46;;;;;;;1.10;0.60;;;;;;;1.41;97.57;94853.84;108900;1272;22551;-81
2023/11/24 07:02:17;;;;;;;4.10;0.80;;;;;;;1.45;97.61;94866.83;108849;1265;23754;-81
2023/11/24 07:04:49;;;;;;;1.40;0.30;;;;;;;1.47;98.15;94864.27;108859;1272;22506;-81
2023/11/24 07:07:21;;;;;;;1.80;0.60;;;;;;;1.49;98.34;94883.52;108875;1263;26445;-81
2023/11/24 07:09:57;;;;;;;1.00;0.30;;;;;;;1.47;98.77;94876.54;108847;1260;22522;-81
2023/11/24 07:12:28;;;;;;;0.30;0.30;;;;;;;1.48;99.21;94891.98;108839;1266;25307;-81
2023/11/24 07:15:03;;;;;;;3.60;1.00;;;;;;;1.52;99.31;94896.63;108864;1272;22557;-81
2023/11/24 07:17:35;;;;;;;3.10;1.90;;;;;;;1.48;99.49;94884.90;108863;1269;25425;-80
2023/11/24 07:20:16;;;;;;;1.30;0.70;;;;;;;1.44;99.53;94883.29;108820;1272;25530;-80
2023/11/24 07:22:58;;;;;;;0.70;0.50;;;;;;;1.44;99.96;94885.52;108852;1269;22514;-80
2023/11/24 07:25:32;;;;;;;1.90;0.90;;;;;;;1.49;100.00;94882.90;108875;1249;22534;-80
2023/11/24 07:28:07;;;;;;;2.00;0.90;;;;;;;1.48;99.97;94891.36;108887;1266;23914;-81
2023/11/24 07:30:42;;;;;;;4.80;2.20;;;;;;;1.49;99.93;94892.67;108843;1272;22535;-81
2023/11/24 07:33:14;;;;;;;1.70;0.60;;;;;;;1.60;99.96;94898.10;108840;1272;22560;-82
2023/11/24 07:35:46;;;;;;;1.10;0.70;;;;;;;1.75;100.00;94885.69;108847;1272;22923;-81
2023/11/24 07:38:24;;;;;;;4.10;1.70;;;;;;;1.86;100.00;94893.25;108809;1265;25450;-81
2023/11/24 07:40:55;;;;;;;2.10;0.70;;;;;;;1.95;100.00;94889.77;108812;1272;24209;-81
2023/11/24 07:43:26;;;;;;;2.20;1.10;;;;;;;1.99;100.00;94896.45;108802;1272;22640;-81
2023/11/24 07:45:57;;;;;;;2.40;0.80;;;;;;;2.00;100.00;94894.52;108843;1272;23835;-81
2023/11/24 07:48:30;;;;;;;5.80;1.70;;;;;;;2.03;100.00;94879.34;108878;1272;22539;-82
2023/11/24 07:51:01;;;;;;;6.30;1.40;;;;;;;2.06;99.64;94883.67;108879;1272;22541;-82
2023/11/24 07:53:37;;;;;;;2.90;0.90;;;;;;;2.06;99.39;94879.43;108876;1272;22967;-82
2023/11/24 07:56:09;;;;;;;3.70;1.50;;;;;;;2.15;98.60;94892.12;108812;1272;22765;-82
2023/11/24 07:58:43;;;;;;;4.40;1.70;;;;;;;2.20;97.69;94877.83;108839;1272;24240;-82
2023/11/24 08:01:19;;;;;;;2.00;0.70;;;;;;;2.24;96.43;94892.64;108795;1272;25262;-82
2023/11/24 08:03:50;;;;;;;8.30;2.30;;;;;;;2.20;96.26;94875.52;108829;1266;24283;-82
2023/11/24 08:06:24;;;;;;;3.80;1.40;;;;;;;2.21;94.54;94873.73;108821;1272;22514;-82
2023/11/24 08:08:56;;;;;;;3.30;1.80;;;;;;;2.44;94.31;94880.02;108834;1272;22514;-81
2023/11/24 08:11:28;;;;;;;8.50;3.60;;;;;;;2.76;94.17;94881.67;108843;1272;22514;-81
2023/11/24 08:13:59;;;;;;;6.60;2.00;;;;;;;3.00;92.76;94883.52;108834;1266;23765;-82
2023/11/24 08:16:33;;;;;;;5.60;1.80;;;;;;;3.09;92.32;94884.55;108853;1272;23712;-82
2023/11/24 08:19:08;;;;;;;6.90;2.00;;;;;;;3.35;92.14;94879.52;108816;1272;22558;-82
2023/11/24 08:21:40;;;;;;;4.70;1.10;;;;;;;3.34;89.14;94873.62;108845;1272;22522;-82
2023/11/24 08:24:14;;;;;;;5.00;1.70;;;;;;;3.38;89.94;94882.17;108844;1265;25226;-82
2023/11/24 08:26:45;;;;;;;5.30;2.30;;;;;;;3.43;89.60;94868.58;108815;1272;22540;-81
2023/11/24 08:29:17;;;;;;;3.40;1.60;;;;;;;3.30;88.22;94864.70;108889;1269;25307;-82
2023/11/24 08:32:00;;;;;;;4.80;1.90;;;;;;;3.32;88.83;94868.15;108870;1272;22514;-81
2023/11/24 08:34:34;;;;;;;7.60;2.20;;;;;;;3.43;89.18;94869.94;108824;1266;25191;-81
2023/11/24 08:37:06;;;;;;;7.40;2.20;;;;;;;3.54;89.29;94872.10;108856;1272;23264;-81
2023/11/24 08:39:39;;;;;;;7.10;1.70;;;;;;;3.57;88.83;94866.92;108859;1272;23314;-81
2023/11/24 08:42:10;;;;;;;4.40;1.70;;;;;;;3.49;87.38;94874.81;108855;1272;22984;-81
2023/11/24 08:44:41;;;;;;;6.70;2.00;;;;;;;3.33;87.02;94886.89;108835;1272;22560;-81
2023/11/24 08:47:16;;;;;;;5.80;1.70;;;;;;;3.27;87.33;94882.59;108865;1266;24378;-81
2023/11/24 08:49:47;;;;;;;5.30;1.60;;;;;;;3.16;86.75;94880.83;108898;1272;22541;-81
2023/11/24 08:52:19;;;;;;;3.90;1.60;;;;;;;3.11;87.09;94877.11;108825;1272;23865;-81
2023/11/24 08:54:52;;;;;;;8.00;1.30;;;;;;;3.07;87.29;94867.81;108871;1272;23831;-82
2023/11/24 08:57:26;;;;;;;4.10;1.40;;;;;;;2.98;87.33;94872.43;108880;1272;25421;-82
2023/11/24 08:59:58;;;;;;;3.10;1.30;;;;;;;2.86;87.06;94872.77;108842;1266;23031;-81
2023/11/24 09:02:31;;;;;;;4.70;1.30;;;;;;;2.78;87.17;94880.24;108801;1249;23110;-81
2023/11/24 09:05:06;;;;;;;4.00;1.30;;;;;;;2.76;86.97;94871.63;108825;1249;22716;-81
2023/11/24 09:07:42;;;;;;;6.70;2.10;;;;;;;2.70;86.70;94865.19;108863;1266;22514;-81
2023/11/24 09:10:15;;;;;;;6.70;1.90;;;;;;;2.68;86.94;94858.77;108824;1272;23867;-81
2023/11/24 09:12:51;;;;;;;4.20;1.20;;;;;;;2.71;87.43;94850.86;108831;1265;22700;-81
2023/11/24 09:15:22;;;;;;;6.80;1.90;;;;;;;2.81;87.77;94857.41;108849;1272;23704;-81
2023/11/24 09:17:56;;;;;;;5.20;1.40;;;;;;;3.00;87.28;94850.84;108850;1266;22524;-82
2023/11/24 09:20:28;;;;;;;4.80;1.40;;;;;;;3.01;86.51;94842.58;108879;1272;24074;-81
2023/11/24 09:22:59;;;;;;;6.90;1.30;;;;;;;2.96;86.11;94849.52;108660;1269;201502;-81
2023/11/24 09:25:36;;;;;;;2.70;1.20;;;;;;;3.03;86.07;94850.56;108802;1272;22539;-81
2023/11/24 09:28:10;;;;;;;3.00;1.10;;;;;;;3.11;86.30;94837.52;108868;1272;25431;-81
2023/11/24 09:30:44;;;;;;;7.20;1.90;;;;;;;3.16;86.35;94827.39;108809;1266;22507;-81
2023/11/24 09:33:16;;;;;;;5.30;1.50;;;;;;;3.13;85.79;94819.60;108790;1270;29013;-81
2023/11/24 09:35:49;;;;;;;5.10;1.30;;;;;;;3.08;85.57;94815.28;108848;1272;24209;-81
2023/11/24 09:38:20;;;;;;;4.10;1.50;;;;;;;3.08;85.88;94814.03;108807;1266;25456;-81
2023/11/24 09:40:54;;;;;;;5.60;0.80;;;;;;;3.15;86.11;94809.10;108874;1266;22521;-81
2023/11/24 09:43:26;;;;;;;6.50;1.20;;;;;;;3.23;85.41;94803.12;108870;1266;24208;-81
2023/11/24 09:46:00;;;;;;;7.10;1.00;;;;;;;3.29;85.27;94793.28;108878;1272;23713;-81
2023/11/24 09:48:36;;;;;;;2.20;0.70;;;;;;;3.24;84.01;94797.04;108853;1265;22534;-81
2023/11/24 09:51:10;;;;;;;3.00;0.80;;;;;;;3.18;83.33;94805.05;108834;1272;22855;-81
2023/11/24 09:53:42;;;;;;;5.60;1.30;;;;;;;3.10;82.46;94807.90;108888;1266;22517;-81
2023/11/24 09:56:14;;;;;;;9.50;1.80;;;;;;;3.12;81.01;94796.88;108855;1272;22708;-81
2023/11/24 09:58:49;;;;;;;7.60;1.60;;;;;;;3.18;79.83;94790.70;108827;1265;22598;-81
2023/11/24 10:01:23;;;;;;;4.70;1.00;;;;;;;3.14;78.65;94787.49;108841;1272;24219;-81
2023/11/24 10:04:01;;;;;;;5.20;0.90;;;;;;;3.18;79.17;94789.97;108821;1265;25416;-81
2023/11/24 10:06:33;;;;;;;4.20;1.30;;;;;;;3.21;79.34;94778.98;108895;1272;22524;-81
2023/11/24 10:09:06;;;;;;;4.30;1.40;;;;;;;3.29;79.61;94776.15;108844;1266;22496;-81
2023/11/24 10:11:42;;;;;;;3.70;0.80;;;;;;;3.32;79.52;94775.23;108818;1269;22532;-80
2023/11/24 10:14:16;;;;;;;5.10;1.50;;;;;;;3.33;78.81;94767.45;108829;1272;22532;-81
2023/11/24 10:16:54;;;;;;;4.50;1.10;;;;;;;3.36;77.70;94762.66;108853;1266;22570;-81
2023/11/24 10:19:27;;;;;;;3.00;0.50;;;;;;;3.35;78.22;94764.86;108840;1266;22513;-81
2023/11/24 10:21:59;;;;;;;5.50;1.00;;;;;;;3.35;78.40;94756.86;108801;1272;22579;-81
2023/11/24 10:24:40;;;;;;;5.10;1.50;;;;;;;3.30;78.45;94755.13;108807;1272;22514;-81
2023/11/24 10:27:23;;;;;;;3.60;1.20;;;;;;;3.29;78.46;94737.49;108837;1272;22784;-81
2023/11/24 10:30:00;;;;;;;3.30;0.90;;;;;;;3.28;77.50;94743.11;108919;1266;22543;-81
2023/11/24 10:32:39;;;;;;;3.70;1.40;;;;;;;3.40;77.76;94735.44;108824;1269;22562;-81
2023/11/24 10:35:13;;;;;;;1.90;0.60;;;;;;;3.40;77.06;94741.20;108876;1272;22616;-81
2023/11/24 10:37:48;;;;;;;7.20;1.40;;;;;;;3.26;77.05;94734.53;108878;1266;22520;-81
2023/11/24 10:40:20;;;;;;;6.00;1.10;;;;;;;3.07;77.07;94730.91;108804;1266;22530;-81
2023/11/24 10:42:54;;;;;;;5.30;1.30;;;;;;;2.94;77.39;94726.25;108798;1266;23747;-81
2023/11/24 10:45:30;;;;;;;6.70;1.50;;;;;;;2.91;76.62;94717.79;108809;1272;22588;-81
2023/11/24 10:48:11;;;;;;;3.30;1.50;;;;;;;2.83;77.09;94712.85;108842;1272;26102;-81
2023/11/24 10:50:48;;;;;;;1.40;0.90;;;;;;;2.74;77.28;94696.44;108829;1266;25384;-81
2023/11/24 10:53:32;;;;;;;6.00;1.30;;;;;;;2.82;77.79;94680.33;108810;1266;23994;-81
2023/11/24 10:56:08;;;;;;;2.70;0.90;;;;;;;3.00;78.24;94674.48;108862;1272;22564;-81
2023/11/24 10:58:40;;;;;;;2.90;0.90;;;;;;;3.07;78.38;94668.75;108878;1251;22666;-81
2023/11/24 11:01:14;;;;;;;3.40;0.80;;;;;;;3.23;78.78;94660.42;108780;1272;22582;-81
2023/11/24 11:03:48;;;;;;;1.90;1.00;;;;;;;3.25;79.10;94665.31;108826;1272;24225;-81
2023/11/24 11:06:31;;;;;;;3.70;1.30;;;;;;;3.36;79.48;94660.11;108875;1265;22515;-81
2023/11/24 11:09:19;;;;;;;4.10;1.30;;;;;;;3.51;79.62;94658.73;108823;1272;24042;-81
2023/11/24 11:12:31;;;;;;;5.20;1.60;;;;;;;3.56;79.44;94654.00;108841;1272;23859;-81
2023/11/24 11:15:04;;;;;;;6.30;1.20;;;;;;;3.60;79.39;94658.45;108808;1272;25447;-81
2023/11/24 11:17:38;;;;;;;2.90;1.10;;;;;;;3.72;79.74;94658.41;108880;1272;25415;-81
2023/11/24 11:20:14;;;;;;;5.20;1.90;;;;;;;3.74;79.76;94650.03;108876;1266;22970;-81
2023/11/24 11:22:50;;;;;;;3.50;1.70;;;;;;;3.79;79.37;94651.33;108812;1272;22520;-81
2023/11/24 11:25:42;;;;;;;4.10;1.10;;;;;;;3.82;79.85;94647.36;108818;1269;22510;-81
2023/11/24 11:28:51;;;;;;;1.50;0.70;;;;;;;3.89;79.90;94646.01;108808;1272;22546;-81
2023/11/24 11:31:33;;;;;;;4.00;0.80;;;;;;;3.83;79.70;94638.92;108805;1272;23796;-81
2023/11/24 11:34:29;;;;;;;4.70;1.40;;;;;;;3.70;79.14;94638.62;108808;1261;22539;-82
2023/11/24 11:37:13;;;;;;;3.60;1.30;;;;;;;3.61;79.46;94625.02;108869;1266;22596;-81
2023/11/24 11:39:53;;;;;;;2.20;1.00;;;;;;;3.73;79.13;94614.79;108836;1265;25271;-81
2023/11/24 11:42:31;;;;;;;4.40;1.30;;;;;;;3.96;79.71;94617.85;108845;1269;23460;-81
2023/11/24 11:45:16;;;;;;;3.30;1.00;;;;;;;4.07;78.51;94604.33;108834;1266;22520;-81
2023/11/24 11:47:52;;;;;;;4.50;1.20;;;;;;;3.90;76.62;94593.09;108837;1272;22692;-81
2023/11/24 11:50:26;;;;;;;1.60;1.10;;;;;;;3.77;76.55;94592.02;108873;1266;22526;-81
2023/11/24 11:53:00;;;;;;;3.70;1.50;;;;;;;3.60;76.75;94592.11;108817;1272;23866;-81
2023/11/24 11:55:32;;;;;;;0.90;0.60;;;;;;;3.60;77.43;94587.98;108820;1272;22680;-81
2023/11/24 11:58:06;;;;;;;4.80;1.50;;;;;;;3.72;77.32;94582.20;108844;1269;23797;-82
2023/11/24 12:00:40;;;;;;;3.10;0.80;;;;;;;3.87;76.67;94567.61;108818;1272;22531;-81
2023/11/24 12:03:12;;;;;;;3.30;1.60;;;;;;;4.03;76.98;94568.89;108834;1272;23643;-81
2023/11/24 12:05:47;;;;;;;4.60;1.00;;;;;;;4.12;75.42;94567.91;108831;1266;22525;-81